Time;durP1;ratioP1;P1;durP2;ratioP2;P2;SDS_P1;SDS_P2;PMS_P1;PMS_P2;Temp;Humidity;BMP_temperature;BMP_pressure;BME280_temperature;BME280_humidity;BME280_pressure;Samples;Min_cycle;Max_cycle;Signal;HPM_P1;HPM_P2
2022/10/21 00:00:22;;;;;;;14.65;7.63;;;;;;;12.63;100.00;100717.03;4996041;28;20028;-78
2022/10/21 00:02:47;;;;;;;15.18;8.30;;;;;;;12.65;100.00;100716.97;4994605;28;20481;-78
2022/10/21 00:05:13;;;;;;;12.30;8.55;;;;;;;12.65;100.00;100719.56;5010005;28;20060;-78
2022/10/21 00:07:38;;;;;;;11.02;7.97;;;;;;;12.65;100.00;100717.84;5003834;28;20045;-78
2022/10/21 00:10:04;;;;;;;13.98;8.10;;;;;;;12.66;100.00;100713.44;5004969;28;20039;-78
2022/10/21 00:12:30;;;;;;;12.13;8.32;;;;;;;12.66;100.00;100708.22;5002558;28;20466;-78
2022/10/21 00:14:55;;;;;;;11.70;8.40;;;;;;;12.67;100.00;100709.94;5006286;28;20082;-78
2022/10/21 00:17:21;;;;;;;12.10;7.72;;;;;;;12.67;100.00;100704.72;5000484;28;20029;-78
2022/10/21 00:19:46;;;;;;;13.07;8.13;;;;;;;12.68;100.00;100711.63;4999493;28;22269;-78
2022/10/21 00:22:11;;;;;;;12.85;8.40;;;;;;;12.68;100.00;100709.03;5010078;28;20029;-78
2022/10/21 00:24:37;;;;;;;13.73;8.27;;;;;;;12.67;100.00;100709.94;5003726;28;20069;-78
2022/10/21 00:27:02;;;;;;;11.65;8.23;;;;;;;12.68;100.00;100703.81;5000408;28;20030;-78
2022/10/21 00:29:28;;;;;;;11.75;7.88;;;;;;;12.66;100.00;100706.50;5000409;28;20026;-78
2022/10/21 00:31:54;;;;;;;11.95;7.80;;;;;;;12.66;100.00;100692.56;5010506;28;20030;-78
2022/10/21 00:34:20;;;;;;;12.75;7.80;;;;;;;12.64;100.00;100705.69;5011536;28;20064;-78
2022/10/21 00:36:45;;;;;;;11.48;7.88;;;;;;;12.65;100.00;100696.09;5011255;28;20496;-78
2022/10/21 00:39:11;;;;;;;12.20;7.60;;;;;;;12.64;100.00;100699.63;5010224;28;20026;-78
2022/10/21 00:41:36;;;;;;;13.20;7.55;;;;;;;12.64;100.00;100694.41;5009205;28;20113;-78
2022/10/21 00:44:05;;;;;;;13.95;7.97;;;;;;;12.63;100.00;100700.53;5014137;28;20041;-78
2022/10/21 00:46:46;;;;;;;11.38;7.40;;;;;;;12.61;100.00;100700.56;5008237;28;20026;-78
2022/10/21 00:49:20;;;;;;;14.30;7.78;;;;;;;12.59;100.00;100703.25;5007720;28;20029;-78
2022/10/21 00:51:48;;;;;;;12.70;7.97;;;;;;;12.58;100.00;100705.91;5006209;28;20049;-78
2022/10/21 00:54:15;;;;;;;12.23;8.10;;;;;;;12.58;100.00;100701.53;5004501;28;20022;-78
2022/10/21 00:56:42;;;;;;;12.60;7.68;;;;;;;12.58;100.00;100703.28;5011755;28;20032;-78
2022/10/21 00:59:07;;;;;;;14.20;8.20;;;;;;;12.57;100.00;100702.47;5007599;28;20022;-78
2022/10/21 01:01:33;;;;;;;13.73;8.32;;;;;;;12.59;100.00;100698.03;5011394;28;20509;-78
2022/10/21 01:04:00;;;;;;;15.80;8.55;;;;;;;12.60;100.00;100699.75;5013928;28;20106;-78
2022/10/21 01:06:26;;;;;;;15.35;8.32;;;;;;;12.59;100.00;100692.81;4993175;28;20060;-78
2022/10/21 01:08:55;;;;;;;13.27;8.07;;;;;;;12.59;100.00;100686.72;5011706;28;20164;-78
2022/10/21 01:11:22;;;;;;;11.73;8.27;;;;;;;12.57;100.00;100688.53;5007504;28;20022;-78
2022/10/21 01:14:32;;;;;;;16.27;7.85;;;;;;;12.57;100.00;100680.72;5008286;28;20117;-78
2022/10/21 01:17:20;;;;;;;12.45;8.05;;;;;;;12.57;100.00;100671.13;5006652;28;20025;-78
2022/10/21 01:19:45;;;;;;;11.73;7.25;;;;;;;12.55;100.00;100669.50;5010573;28;20034;-78
2022/10/21 01:22:38;;;;;;;11.45;7.70;;;;;;;12.53;100.00;100669.53;5007280;28;20432;-78
2022/10/21 01:25:18;;;;;;;11.40;7.40;;;;;;;12.52;100.00;100667.84;5007963;28;20033;-78
2022/10/21 01:27:57;;;;;;;14.30;7.32;;;;;;;12.49;100.00;100670.56;5008048;28;20398;-78
2022/10/21 01:30:27;;;;;;;11.50;7.50;;;;;;;12.47;100.00;100663.69;5009915;28;20033;-78
2022/10/21 01:32:59;;;;;;;11.35;8.07;;;;;;;12.46;100.00;100652.44;5006967;28;20446;-78
2022/10/21 01:35:36;;;;;;;12.00;7.47;;;;;;;12.42;100.00;100648.22;5013438;28;20021;-78
2022/10/21 01:38:12;;;;;;;10.27;7.63;;;;;;;12.38;100.00;100644.00;5012287;28;20061;-78
2022/10/21 01:40:51;;;;;;;15.70;7.72;;;;;;;12.35;100.00;100641.50;5011574;28;20036;-78
2022/10/21 01:44:09;;;;;;;14.43;8.05;;;;;;;12.34;100.00;100642.41;5012579;28;20026;-78
2022/10/21 01:46:48;;;;;;;11.93;7.38;;;;;;;12.29;100.00;100633.03;4941732;28;21971;-78
2022/10/21 01:49:26;;;;;;;10.40;7.50;;;;;;;12.26;100.00;100627.91;4946736;29;20035;-78
2022/10/21 01:51:53;;;;;;;11.00;7.15;;;;;;;12.24;100.00;100629.72;4998812;28;20064;-78
2022/10/21 01:54:26;;;;;;;12.18;7.53;;;;;;;12.22;100.00;100621.09;5009962;28;20125;-78
2022/10/21 01:56:52;;;;;;;12.43;7.25;;;;;;;12.19;100.00;100616.00;4994134;28;20045;-78
2022/10/21 01:59:20;;;;;;;11.52;7.47;;;;;;;12.17;100.00;100616.97;5012425;28;20363;-78
2022/10/21 02:01:47;;;;;;;14.07;7.95;;;;;;;12.13;100.00;100611.84;5010928;28;20026;-78
2022/10/21 02:04:14;;;;;;;11.32;7.32;;;;;;;12.11;100.00;100608.44;5012485;28;20465;-78
2022/10/21 02:06:40;;;;;;;12.40;8.02;;;;;;;12.09;100.00;100610.25;5012346;28;20010;-78
2022/10/21 02:09:05;;;;;;;11.43;7.22;;;;;;;12.10;100.00;100600.69;4998096;28;20472;-78
2022/10/21 02:11:34;;;;;;;12.45;7.47;;;;;;;12.07;100.00;100590.38;5011042;28;20036;-78
2022/10/21 02:14:12;;;;;;;10.40;7.15;;;;;;;12.06;100.00;100596.47;5018472;28;20122;-78
2022/10/21 02:16:38;;;;;;;11.38;7.20;;;;;;;12.05;100.00;100594.78;5010494;28;20347;-78
2022/10/21 02:19:12;;;;;;;12.30;7.53;;;;;;;12.03;100.00;100587.03;5009372;28;20492;-78
2022/10/21 02:21:37;;;;;;;11.13;7.30;;;;;;;12.02;100.00;100590.53;5012896;28;20041;-78
2022/10/21 02:24:37;;;;;;;14.02;8.05;;;;;;;12.03;100.00;100591.38;5012632;28;20034;-78
2022/10/21 02:27:02;;;;;;;12.20;6.93;;;;;;;11.99;100.00;100581.03;5011391;28;20029;-78
2022/10/21 02:29:33;;;;;;;11.65;7.45;;;;;;;11.98;100.00;100581.94;5010213;28;20401;-78
2022/10/21 02:32:15;;;;;;;11.03;7.33;;;;;;;11.97;100.00;100585.44;5009507;28;20470;-78
2022/10/21 02:34:53;;;;;;;10.90;7.25;;;;;;;11.98;100.00;100586.28;5010722;28;20087;-78
2022/10/21 02:37:44;;;;;;;10.63;7.03;;;;;;;11.98;100.00;100591.50;5011502;28;20038;-78
2022/10/21 02:40:21;;;;;;;11.57;7.22;;;;;;;11.97;100.00;100593.25;5012437;28;20064;-78
2022/10/21 02:42:52;;;;;;;12.35;7.18;;;;;;;11.97;100.00;100595.03;5011831;28;20108;-78
2022/10/21 02:45:19;;;;;;;12.68;7.38;;;;;;;11.96;100.00;100588.94;5010377;28;20108;-78
2022/10/21 02:47:47;;;;;;;11.20;7.15;;;;;;;11.96;100.00;100599.38;5011439;28;20084;-78
2022/10/21 02:50:13;;;;;;;13.70;7.28;;;;;;;11.96;100.00;100586.34;5000003;28;20068;-78
2022/10/21 02:52:38;;;;;;;12.57;7.03;;;;;;;11.97;100.00;100582.81;5010951;28;20049;-78
2022/10/21 02:55:04;;;;;;;11.95;7.22;;;;;;;11.97;100.00;100587.19;5011420;28;20030;-78
2022/10/21 02:57:29;;;;;;;13.65;7.32;;;;;;;11.96;100.00;100583.72;5010409;28;20034;-78
2022/10/21 02:59:54;;;;;;;11.98;7.00;;;;;;;11.97;100.00;100585.44;5006499;28;20033;-78
2022/10/21 03:02:20;;;;;;;10.90;6.82;;;;;;;11.98;100.00;100584.56;5006550;28;20660;-77
2022/10/21 03:04:45;;;;;;;12.55;7.30;;;;;;;11.98;100.00;100576.72;5005575;28;20033;-78
2022/10/21 03:07:10;;;;;;;11.30;6.97;;;;;;;11.98;100.00;100576.72;5008451;28;20029;-78
2022/10/21 03:09:35;;;;;;;11.50;6.63;;;;;;;11.97;100.00;100561.97;5009891;28;20032;-78
2022/10/21 03:12:01;;;;;;;12.02;6.55;;;;;;;11.96;100.00;100569.84;5006800;28;20033;-78
2022/10/21 03:14:26;;;;;;;10.75;6.72;;;;;;;11.95;100.00;100571.63;5005768;28;20014;-78
2022/10/21 03:16:51;;;;;;;10.40;6.90;;;;;;;11.94;100.00;100582.97;5012670;28;20078;-78
2022/10/21 03:19:16;;;;;;;10.57;7.07;;;;;;;11.90;100.00;100577.88;5007154;28;20022;-78
2022/10/21 03:21:42;;;;;;;10.57;6.68;;;;;;;11.88;100.00;100579.69;5009568;28;20373;-78
2022/10/21 03:24:07;;;;;;;11.00;6.38;;;;;;;11.85;100.00;100572.84;4989651;28;20030;-78
2022/10/21 03:26:32;;;;;;;13.65;6.60;;;;;;;11.83;100.00;100572.91;5006649;28;20531;-78
2022/10/21 03:28:57;;;;;;;11.60;7.28;;;;;;;11.82;100.00;100571.19;5008203;28;20044;-78
2022/10/21 03:31:23;;;;;;;14.05;6.32;;;;;;;11.81;100.00;100569.50;5010445;28;20021;-78
2022/10/21 03:33:48;;;;;;;9.90;6.40;;;;;;;11.80;100.00;100569.53;5008395;28;20084;-78
2022/10/21 03:36:13;;;;;;;10.63;6.32;;;;;;;11.79;100.00;100565.22;5010733;28;20082;-78
2022/10/21 03:38:38;;;;;;;11.73;6.75;;;;;;;11.78;100.00;100571.38;5011480;28;20030;-78
2022/10/21 03:41:04;;;;;;;8.88;6.70;;;;;;;11.75;100.00;100571.47;5011973;28;20045;-78
2022/10/21 03:43:29;;;;;;;11.02;6.47;;;;;;;11.75;100.00;100574.91;5012086;28;20044;-78
2022/10/21 03:45:54;;;;;;;11.30;6.63;;;;;;;11.74;100.00;100573.22;5008540;28;20046;-78
2022/10/21 03:48:20;;;;;;;10.43;6.43;;;;;;;11.75;100.00;100574.09;5011141;28;20049;-78
2022/10/21 03:50:45;;;;;;;9.52;5.90;;;;;;;11.75;100.00;100566.25;5007860;28;20034;-78
2022/10/21 03:53:10;;;;;;;11.02;6.20;;;;;;;11.74;100.00;100567.16;5012661;28;20105;-78
2022/10/21 03:55:36;;;;;;;8.98;6.15;;;;;;;11.74;100.00;100562.78;5009341;28;20093;-78
2022/10/21 03:58:01;;;;;;;10.25;6.05;;;;;;;11.73;100.00;100561.09;5009220;28;20034;-78
2022/10/21 04:00:26;;;;;;;10.07;6.25;;;;;;;11.71;100.00;100562.06;5008013;28;20075;-78
2022/10/21 04:02:52;;;;;;;8.27;5.38;;;;;;;11.71;100.00;100551.63;5008870;28;20083;-78
2022/10/21 04:05:17;;;;;;;9.60;5.75;;;;;;;11.69;100.00;100549.09;5014328;28;20033;-78
2022/10/21 04:07:42;;;;;;;10.23;5.63;;;;;;;11.68;100.00;100553.44;5017505;28;20025;-77
2022/10/21 04:10:08;;;;;;;9.60;5.82;;;;;;;11.69;100.00;100554.31;5021740;28;20040;-78
2022/10/21 04:12:33;;;;;;;10.23;6.00;;;;;;;11.67;100.00;100554.34;5015506;28;20030;-78
2022/10/21 04:14:59;;;;;;;7.85;5.30;;;;;;;11.67;100.00;100550.91;5015533;28;20441;-78
2022/10/21 04:17:24;;;;;;;8.23;5.53;;;;;;;11.65;100.00;100558.75;5012708;28;20558;-78
2022/10/21 04:19:49;;;;;;;12.43;6.38;;;;;;;11.64;100.00;100557.03;5014009;28;20030;-78
2022/10/21 04:22:14;;;;;;;9.52;5.75;;;;;;;11.63;100.00;100552.75;5017027;28;20444;-78
2022/10/21 04:24:40;;;;;;;10.85;5.97;;;;;;;11.63;100.00;100554.50;5012499;28;20028;-78
2022/10/21 04:27:05;;;;;;;12.18;5.82;;;;;;;11.61;100.00;100551.97;5012522;28;20440;-78
2022/10/21 04:29:30;;;;;;;7.28;5.15;;;;;;;11.61;100.00;100554.56;5014785;28;20506;-78
2022/10/21 04:31:56;;;;;;;7.82;4.95;;;;;;;11.61;100.00;100553.72;5011858;28;20030;-78
2022/10/21 04:34:21;;;;;;;9.15;5.38;;;;;;;11.59;100.00;100553.78;5014436;28;20517;-78
2022/10/21 04:36:46;;;;;;;9.32;5.47;;;;;;;11.58;100.00;100554.69;5013468;28;20473;-78
2022/10/21 04:39:11;;;;;;;7.95;5.32;;;;;;;11.57;100.00;100558.19;5013490;28;20520;-78
2022/10/21 04:41:37;;;;;;;8.57;5.35;;;;;;;11.56;100.00;100564.28;5012967;28;20029;-78
2022/10/21 04:44:03;;;;;;;9.93;5.53;;;;;;;11.54;100.00;100566.09;5015322;28;20053;-78
2022/10/21 04:46:28;;;;;;;8.07;5.22;;;;;;;11.54;100.00;100566.09;5010940;28;20029;-78
2022/10/21 04:48:54;;;;;;;9.88;5.35;;;;;;;11.53;100.00;100564.41;5014811;28;20080;-78
2022/10/21 04:51:19;;;;;;;8.38;4.97;;;;;;;11.52;100.00;100568.78;5012089;28;20052;-78
2022/10/21 04:53:44;;;;;;;9.95;5.18;;;;;;;11.50;100.00;100570.56;5014739;28;20065;-78
2022/10/21 04:56:10;;;;;;;11.38;5.15;;;;;;;11.49;100.00;100568.88;5012364;28;20044;-78
2022/10/21 04:58:35;;;;;;;8.68;4.90;;;;;;;11.49;100.00;100575.81;5013941;28;20034;-78
2022/10/21 05:01:00;;;;;;;8.32;5.13;;;;;;;11.48;100.00;100564.56;5013453;28;20066;-78
2022/10/21 05:03:25;;;;;;;9.25;5.20;;;;;;;11.46;100.00;100563.75;5024533;28;20080;-77
2022/10/21 05:05:51;;;;;;;8.60;5.05;;;;;;;11.47;100.00;100564.59;5027063;28;20028;-78
2022/10/21 05:08:18;;;;;;;10.07;5.38;;;;;;;11.47;100.00;100559.38;5014684;28;20073;-78
2022/10/21 05:10:43;;;;;;;8.95;5.00;;;;;;;11.46;100.00;100568.09;5012960;28;20040;-78
2022/10/21 05:13:08;;;;;;;9.25;4.93;;;;;;;11.45;100.00;100561.19;5015817;28;20034;-78
2022/10/21 05:15:34;;;;;;;10.30;5.53;;;;;;;11.46;100.00;100563.75;5030915;28;20465;-77
2022/10/21 05:17:59;;;;;;;8.45;5.00;;;;;;;11.46;100.00;100560.28;5013878;28;20033;-78
2022/10/21 05:20:25;;;;;;;7.72;5.45;;;;;;;11.46;100.00;100555.06;5017683;28;20022;-77
2022/10/21 05:22:51;;;;;;;8.18;4.93;;;;;;;11.47;100.00;100551.56;5003725;28;20034;-78
2022/10/21 05:25:17;;;;;;;9.57;5.03;;;;;;;11.46;100.00;100552.47;5012540;28;20057;-77
2022/10/21 05:27:42;;;;;;;10.50;5.60;;;;;;;11.46;100.00;100555.06;5012124;28;20022;-78
2022/10/21 05:30:08;;;;;;;8.32;5.32;;;;;;;11.46;100.00;100547.25;5013015;28;20037;-78
2022/10/21 05:32:34;;;;;;;6.97;4.90;;;;;;;11.46;100.00;100542.03;5013842;28;20384;-78
2022/10/21 05:34:59;;;;;;;13.15;5.20;;;;;;;11.46;100.00;100536.84;5013433;28;20537;-78
2022/10/21 05:37:24;;;;;;;8.60;4.70;;;;;;;11.46;100.00;100539.44;5011047;28;20041;-78
2022/10/21 05:39:49;;;;;;;7.97;4.68;;;;;;;11.46;100.00;100537.72;5014245;28;20112;-78
2022/10/21 05:42:14;;;;;;;8.35;5.03;;;;;;;11.46;100.00;100534.22;5011241;28;20030;-78
2022/10/21 05:44:40;;;;;;;8.35;4.90;;;;;;;11.46;100.00;100523.81;5013040;28;20030;-78
2022/10/21 05:47:05;;;;;;;9.18;4.90;;;;;;;11.44;100.00;100526.47;5003182;28;20521;-78
2022/10/21 05:49:30;;;;;;;9.77;5.18;;;;;;;11.43;100.00;100535.19;5014761;28;20028;-78
2022/10/21 05:51:56;;;;;;;7.15;4.68;;;;;;;11.43;100.00;100526.56;5012226;28;20080;-78
2022/10/21 05:54:21;;;;;;;7.72;4.82;;;;;;;11.41;100.00;100523.16;5013966;28;20473;-78
2022/10/21 05:56:47;;;;;;;7.75;4.78;;;;;;;11.41;100.00;100516.16;5013209;28;20048;-78
2022/10/21 05:59:12;;;;;;;8.85;4.82;;;;;;;11.39;100.00;100511.03;5018138;28;20083;-78
2022/10/21 06:01:38;;;;;;;13.90;5.00;;;;;;;11.40;100.00;100517.06;5014531;28;20029;-78
2022/10/21 06:04:04;;;;;;;11.48;5.03;;;;;;;11.39;100.00;100516.22;5012685;28;20477;-77
2022/10/21 06:06:29;;;;;;;7.13;4.72;;;;;;;11.40;100.00;100514.47;5013739;28;20022;-77
2022/10/21 06:08:54;;;;;;;8.15;4.63;;;;;;;11.41;100.00;100520.53;5012928;28;20084;-78
2022/10/21 06:11:20;;;;;;;9.93;5.00;;;;;;;11.40;100.00;100517.06;5013721;28;20514;-78
2022/10/21 06:13:46;;;;;;;8.40;4.90;;;;;;;11.40;100.00;100514.47;5011608;28;20033;-78
2022/10/21 06:16:12;;;;;;;8.75;4.97;;;;;;;11.41;100.00;100507.50;5014618;28;20026;-77
2022/10/21 06:18:38;;;;;;;7.82;4.82;;;;;;;11.41;100.00;100518.78;5009801;28;20026;-78
2022/10/21 06:21:04;;;;;;;8.23;5.20;;;;;;;11.39;100.00;100516.22;5011540;28;20072;-78
2022/10/21 06:23:30;;;;;;;7.80;4.78;;;;;;;11.40;100.00;100517.06;5008565;28;20470;-77
2022/10/21 06:26:01;;;;;;;7.50;5.13;;;;;;;11.39;100.00;100520.56;5022579;28;20083;-78
2022/10/21 06:28:28;;;;;;;9.02;4.95;;;;;;;11.39;100.00;100524.03;5017436;28;20095;-78
2022/10/21 06:30:53;;;;;;;8.50;5.30;;;;;;;11.39;100.00;100520.56;5009109;28;20087;-78
2022/10/21 06:33:19;;;;;;;7.75;5.03;;;;;;;11.39;99.93;100526.66;5024354;28;20481;-78
2022/10/21 06:35:44;;;;;;;8.18;4.97;;;;;;;11.38;100.00;100524.94;5012626;28;20040;-77
2022/10/21 06:38:09;;;;;;;9.65;5.30;;;;;;;11.39;100.00;100531.00;5013789;28;20474;-78
2022/10/21 06:40:35;;;;;;;9.75;4.75;;;;;;;11.38;99.67;100530.16;5019903;28;20037;-77
2022/10/21 06:43:00;;;;;;;9.68;5.18;;;;;;;11.38;99.89;100534.50;5032302;28;20021;-78
2022/10/21 06:45:25;;;;;;;11.07;5.50;;;;;;;11.38;99.78;100529.28;5016197;28;20477;-78
2022/10/21 06:47:51;;;;;;;12.48;5.53;;;;;;;11.38;99.89;100535.38;5012080;28;20124;-78
2022/10/21 06:50:17;;;;;;;7.28;5.07;;;;;;;11.38;99.90;100544.91;5006643;28;20026;-77
2022/10/21 06:52:42;;;;;;;11.50;5.40;;;;;;;11.41;100.00;100554.41;5004248;28;20462;-78
2022/10/21 06:55:08;;;;;;;9.10;5.22;;;;;;;11.43;100.00;100557.81;5005154;28;20029;-78
2022/10/21 06:57:33;;;;;;;8.40;5.13;;;;;;;11.45;100.00;100562.06;5003269;28;20757;-78
2022/10/21 06:59:58;;;;;;;7.60;5.13;;;;;;;11.46;100.00;100568.09;5006915;28;20049;-78
2022/10/21 07:02:24;;;;;;;11.30;5.07;;;;;;;11.49;100.00;100568.00;5009189;28;20067;-78
2022/10/21 07:04:51;;;;;;;8.95;4.97;;;;;;;11.50;100.00;100567.97;5009190;28;20073;-77
2022/10/21 07:07:17;;;;;;;9.57;5.30;;;;;;;11.53;100.00;100575.66;4991921;28;20018;-78
2022/10/21 07:09:42;;;;;;;8.35;5.22;;;;;;;11.55;100.00;100578.22;5002290;28;20504;-78
2022/10/21 07:12:07;;;;;;;8.25;5.22;;;;;;;11.58;100.00;100583.34;5002136;28;20080;-77
2022/10/21 07:14:32;;;;;;;11.63;5.40;;;;;;;11.63;100.00;100596.19;5004708;28;20028;-78
2022/10/21 07:16:58;;;;;;;9.40;5.13;;;;;;;11.65;100.00;100595.22;5002341;28;20030;-77
2022/10/21 07:19:24;;;;;;;8.52;4.93;;;;;;;11.67;100.00;100601.25;4995925;28;20476;-78
2022/10/21 07:21:49;;;;;;;11.13;5.22;;;;;;;11.72;100.00;100606.28;5009362;28;20164;-78
2022/10/21 07:24:14;;;;;;;9.23;5.55;;;;;;;11.75;100.00;100610.56;5008779;28;20034;-78
2022/10/21 07:26:40;;;;;;;12.00;5.47;;;;;;;11.79;100.00;100606.94;5000004;28;20568;-78
2022/10/21 07:29:05;;;;;;;7.80;5.03;;;;;;;11.83;100.00;100608.53;5005462;28;20053;-78
2022/10/21 07:31:34;;;;;;;9.02;5.30;;;;;;;11.86;100.00;100607.59;5005584;28;20026;-78
2022/10/21 07:34:01;;;;;;;9.75;5.13;;;;;;;11.91;100.00;100605.66;4999968;28;20022;-78
2022/10/21 07:36:29;;;;;;;9.60;5.15;;;;;;;11.95;100.00;100600.31;5001660;28;20049;-78
2022/10/21 07:38:57;;;;;;;7.22;5.25;;;;;;;11.98;100.00;100602.81;4994194;28;20076;-77
2022/10/21 07:41:26;;;;;;;8.38;5.10;;;;;;;12.03;100.00;100593.97;5006500;28;20329;-78
2022/10/21 07:43:52;;;;;;;8.70;5.05;;;;;;;12.06;100.00;100596.47;5007768;28;20180;-78
2022/10/21 07:46:19;;;;;;;10.30;5.13;;;;;;;12.10;100.00;100600.69;5004975;28;20030;-77
2022/10/21 07:48:44;;;;;;;7.85;4.68;;;;;;;12.13;100.00;100601.41;4986647;28;20041;-77
2022/10/21 07:51:14;;;;;;;10.15;4.75;;;;;;;12.17;100.00;100596.94;5007027;28;20132;-78
2022/10/21 07:53:40;;;;;;;8.95;4.90;;;;;;;12.21;100.00;100595.91;5003487;28;20069;-77
2022/10/21 07:56:07;;;;;;;9.52;4.43;;;;;;;12.25;100.00;100594.03;4998559;28;20030;-77
2022/10/21 07:58:33;;;;;;;8.75;5.05;;;;;;;12.29;100.00;100596.50;5007017;28;20046;-78
2022/10/21 08:01:00;;;;;;;8.85;4.80;;;;;;;12.32;100.00;100594.66;5002720;28;20138;-78
2022/10/21 08:03:25;;;;;;;10.10;4.72;;;;;;;12.36;100.00;100602.34;5010138;28;20048;-78
2022/10/21 08:05:52;;;;;;;8.73;4.60;;;;;;;12.40;100.00;100613.50;4998743;28;20030;-78
2022/10/21 08:08:20;;;;;;;10.10;4.97;;;;;;;12.44;100.00;100604.66;4997491;28;20485;-78
2022/10/21 08:10:46;;;;;;;7.18;4.68;;;;;;;12.49;100.00;100605.31;4990618;28;20021;-78
2022/10/21 08:13:12;;;;;;;7.32;4.22;;;;;;;12.52;100.00;100602.59;5005842;28;20038;-78
2022/10/21 08:15:41;;;;;;;8.77;5.00;;;;;;;12.56;100.00;100609.41;5006554;28;20033;-78
2022/10/21 08:18:06;;;;;;;10.23;4.80;;;;;;;12.60;100.00;100605.78;5006249;28;20057;-78
2022/10/21 08:20:32;;;;;;;9.63;4.90;;;;;;;12.65;100.00;100602.13;5005016;28;20060;-78
2022/10/21 08:22:57;;;;;;;8.75;4.57;;;;;;;12.67;100.00;100595.09;5003366;28;20417;-77
2022/10/21 08:25:22;;;;;;;7.88;4.65;;;;;;;12.70;100.00;100600.19;4999568;28;20038;-77
2022/10/21 08:27:47;;;;;;;9.68;4.97;;;;;;;12.69;100.00;100593.28;5000224;28;20026;-78
2022/10/21 08:30:14;;;;;;;10.57;5.18;;;;;;;12.69;100.00;100598.50;5000411;28;20057;-78
2022/10/21 08:32:39;;;;;;;9.35;5.00;;;;;;;12.68;100.00;100602.88;5000225;28;20037;-78
2022/10/21 08:35:05;;;;;;;8.63;5.00;;;;;;;12.70;100.00;100614.13;5000805;28;20523;-78
2022/10/21 08:37:31;;;;;;;12.38;5.07;;;;;;;12.71;100.00;100612.34;4999269;28;20045;-78
2022/10/21 08:39:56;;;;;;;9.35;4.95;;;;;;;12.71;100.00;100617.56;5000722;28;20038;-78
2022/10/21 08:42:22;;;;;;;9.55;5.28;;;;;;;12.72;100.00;100619.28;5000895;28;20030;-78
2022/10/21 08:44:48;;;;;;;9.15;5.03;;;;;;;12.72;100.00;100624.50;5002035;28;20041;-78
2022/10/21 08:47:13;;;;;;;10.32;5.35;;;;;;;12.72;100.00;100614.03;5002056;28;20042;-78
2022/10/21 08:49:58;;;;;;;9.15;5.03;;;;;;;12.73;100.00;100620.97;5003209;28;20172;-78
2022/10/21 08:52:34;;;;;;;7.45;4.95;;;;;;;12.73;100.00;100621.81;5004306;28;20033;-78
2022/10/21 08:55:03;;;;;;;10.57;5.28;;;;;;;12.75;100.00;100624.38;5005039;28;20095;-78
2022/10/21 08:57:33;;;;;;;8.02;4.80;;;;;;;12.76;100.00;100618.25;5006160;28;20740;-78
2022/10/21 08:59:58;;;;;;;9.40;5.35;;;;;;;12.77;100.00;100617.34;5004928;28;20045;-78
2022/10/21 09:02:38;;;;;;;9.65;5.25;;;;;;;12.78;100.00;100616.44;5005040;28;22084;-79
2022/10/21 09:05:05;;;;;;;8.13;5.20;;;;;;;12.80;100.00;100614.63;5006581;28;20033;-78
2022/10/21 09:07:37;;;;;;;9.35;5.45;;;;;;;12.82;100.00;100633.66;5004444;28;20177;-78
2022/10/21 09:10:17;;;;;;;9.93;5.93;;;;;;;12.83;100.00;100637.97;5006542;28;20034;-78
2022/10/21 09:13:11;;;;;;;11.00;5.50;;;;;;;12.83;100.00;100635.34;5003513;28;20030;-77
2022/10/21 09:15:59;;;;;;;9.00;5.20;;;;;;;12.84;100.00;100644.91;5003952;28;20116;-78
2022/10/21 09:18:48;;;;;;;9.15;5.22;;;;;;;12.86;100.00;100637.84;5004294;28;20056;-78
2022/10/21 09:21:21;;;;;;;8.23;5.22;;;;;;;12.88;100.00;100641.25;5004908;28;20217;-77
2022/10/21 09:23:52;;;;;;;9.38;4.97;;;;;;;12.93;100.00;100638.47;5003879;28;20663;-77
2022/10/21 09:26:40;;;;;;;9.13;5.28;;;;;;;12.97;100.00;100634.00;5004323;28;20042;-77
2022/10/21 09:29:28;;;;;;;9.07;5.22;;;;;;;13.01;100.00;100639.03;5003205;28;20469;-78
2022/10/21 09:32:08;;;;;;;9.52;5.00;;;;;;;13.07;100.00;100635.31;5003716;28;20037;-77
2022/10/21 09:34:43;;;;;;;7.82;5.07;;;;;;;13.13;100.00;100634.22;5007231;28;20377;-77
2022/10/21 09:37:31;;;;;;;8.65;5.30;;;;;;;13.17;100.00;100626.19;5008138;28;20087;-78
2022/10/21 09:40:22;;;;;;;7.38;4.80;;;;;;;13.23;100.00;100640.81;5003704;28;20046;-77
2022/10/21 09:42:50;;;;;;;9.55;5.18;;;;;;;13.29;100.00;100642.31;5005741;28;20030;-78
2022/10/21 09:45:34;;;;;;;6.60;4.68;;;;;;;13.34;100.00;100635.97;5003946;28;20029;-78
2022/10/21 09:48:03;;;;;;;7.47;4.72;;;;;;;13.41;100.00;100636.59;4987895;28;20466;-78
2022/10/21 09:50:31;;;;;;;8.85;4.82;;;;;;;13.48;100.00;100639.81;5003910;28;20050;-78
2022/10/21 09:53:03;;;;;;;9.77;4.93;;;;;;;13.55;100.00;100632.56;5004952;28;20049;-78
2022/10/21 09:55:30;;;;;;;10.40;4.80;;;;;;;13.63;100.00;100638.34;5002977;28;20045;-78
2022/10/21 09:58:01;;;;;;;9.15;5.43;;;;;;;13.68;100.00;100631.13;5004531;28;20476;-78
2022/10/21 10:00:46;;;;;;;7.63;4.60;;;;;;;13.74;100.00;100636.13;5002365;28;20497;-77
2022/10/21 10:03:27;;;;;;;7.38;4.72;;;;;;;13.78;100.00;100626.38;5003474;28;20537;-77
2022/10/21 10:05:52;;;;;;;6.97;4.82;;;;;;;13.83;100.00;100620.97;5006160;28;20377;-77
2022/10/21 10:08:39;;;;;;;7.50;4.90;;;;;;;13.88;100.00;100627.69;5002265;28;20026;-78
2022/10/21 10:11:07;;;;;;;7.68;4.72;;;;;;;13.93;100.00;100628.31;5004260;28;20057;-78
2022/10/21 10:13:34;;;;;;;8.48;5.10;;;;;;;13.97;100.00;100634.28;5003747;28;20041;-78
2022/10/21 10:16:28;;;;;;;10.38;5.00;;;;;;;14.02;100.00;100640.16;5004951;28;20197;-78
2022/10/21 10:19:16;;;;;;;7.43;4.57;;;;;;;14.07;100.00;100640.81;4991946;28;20031;-78
2022/10/21 10:21:42;;;;;;;8.30;4.75;;;;;;;14.10;100.00;100645.91;5004531;28;20053;-78
2022/10/21 10:24:16;;;;;;;7.30;4.45;;;;;;;14.16;100.00;100651.81;5004267;28;20469;-78
2022/10/21 10:26:42;;;;;;;6.95;4.43;;;;;;;14.20;100.00;100653.34;5003116;28;20095;-78
2022/10/21 10:29:13;;;;;;;8.15;4.43;;;;;;;14.23;100.00;100651.47;5006379;28;20749;-78
2022/10/21 10:31:45;;;;;;;7.85;4.60;;;;;;;14.27;100.00;100645.16;5007822;28;20037;-78
2022/10/21 10:34:20;;;;;;;9.25;4.45;;;;;;;14.31;100.00;100655.50;5007079;28;20104;-77
2022/10/21 10:36:47;;;;;;;8.73;4.30;;;;;;;14.36;100.00;100656.97;5002072;28;20552;-78
2022/10/21 10:39:25;;;;;;;10.50;4.60;;;;;;;14.40;100.00;100658.53;5004450;28;20034;-78
2022/10/21 10:41:51;;;;;;;7.25;4.47;;;;;;;14.47;100.00;100656.50;5003404;28;20104;-78
2022/10/21 10:44:35;;;;;;;8.05;4.32;;;;;;;14.56;100.00;100663.09;5004582;28;20026;-78
2022/10/21 10:47:03;;;;;;;9.55;4.82;;;;;;;14.63;100.00;100659.28;5003724;28;21317;-78
2022/10/21 10:49:36;;;;;;;7.85;4.95;;;;;;;14.70;100.00;100658.09;5004920;28;20481;-78
2022/10/21 10:52:04;;;;;;;7.78;4.63;;;;;;;14.78;100.00;100659.53;5003959;28;20034;-78
2022/10/21 10:54:29;;;;;;;9.27;4.70;;;;;;;14.85;100.00;100655.72;5002809;28;20117;-78
2022/10/21 10:56:59;;;;;;;6.38;4.20;;;;;;;14.93;99.95;100655.34;5002317;28;20037;-78
2022/10/21 10:59:34;;;;;;;8.48;4.78;;;;;;;15.00;99.37;100660.22;5003442;28;20032;-78
2022/10/21 11:02:08;;;;;;;10.05;4.65;;;;;;;15.08;99.20;100656.38;5004623;28;20377;-78
2022/10/21 11:05:09;;;;;;;5.90;4.20;;;;;;;15.14;98.61;100659.56;5005338;28;20022;-78
2022/10/21 11:07:49;;;;;;;7.57;3.97;;;;;;;15.19;97.74;100654.13;5006620;28;20026;-78
2022/10/21 11:10:39;;;;;;;7.32;3.70;;;;;;;15.26;97.73;100646.81;5006896;28;20033;-78
2022/10/21 11:13:10;;;;;;;6.28;3.55;;;;;;;15.30;97.02;100649.19;5006482;28;20420;-78
2022/10/21 11:15:35;;;;;;;;;;;;;;;15.38;97.90;100650.56;5006047;28;20385;-79
2022/10/21 11:18:17;;;;;;;6.80;2.92;;;;;;;15.44;96.92;100637.16;5003602;28;19925;-78
2022/10/21 11:20:59;;;;;;;4.68;2.72;;;;;;;15.52;95.87;100640.28;5004476;28;20033;-78
2022/10/21 11:23:33;;;;;;;6.15;2.58;;;;;;;15.58;95.44;100626.84;5002863;28;20038;-78